Fitler, Mississippi
Current Conditions -  °F | °C
As of 11:53 PM on Thursday 27 Nov 2014 (Local Time) from KTVR Reporting Station
Clear Clear  
Wind Chill: 30°   Ceiling: Unl
Heat Index: 30°   Visibility: 8mi
Dew Point: 28°   Wind: 0mph
Humidity: 92%   Direction: NA
Pressure: 30.46"   Gusts: NA
Location:  32.8112°N, 90.8327°W
Report Text: KTVR 280553Z AUTO 00000KT 8SM CLR M01/M02 A3046 RMK AO2 SLP324 T10111022 10050 21022 401061022 58010
Loading
Personal Weather Stations






























Interactive Weather Map New forecast layout! Learn more

10-Day Weather Forecast

Advertisements
Track Severe Weather on mobile